Камери на живо
METAR for:LBPD (Plovdiv Arpt, PL, BG)
Text:LBPD 070500Z AUTO VRB02KT 9999 FEW130/// 09/04 Q1027 NOSIG
Temperature: 9.0°C ( 48°F)
Dewpoint: 4.0°C ( 39°F) [RH = 71%]
Pressure (altimeter):30.32 inches Hg (1027.0 mb)
Winds:variable direction winds at 2 MPH (2 knots; 1.0 m/s)
Visibility:6 or more sm (10+ km)
Ceiling:at least 12,000 feet AGL
Clouds: few clouds at 13000 feet AGL

TAF for:LBPD (Plovdiv Arpt, PL, BG) issued at 0500 UTC 07 Oct 2022
Text:TAF LBPD 070500Z 0706/0806 VRB04KT CAVOK
Forecast period:0600 to 0800 UTC 07 October 2022
Forecast type:FROM: standard forecast or significant change
Winds:variable direction winds at 5 MPH (4 knots; 2.1 m/s)
Visibility:6 or more sm (10+ km)
Clouds:missing
Weather:NSW (no significant weather)
Text:BECMG 0708/0710 30010KT
Forecast period:0800 to 1600 UTC 07 October 2022
Forecast type:BECOMING: Conditions expected to become as follows by 1000 UTC 07 October 2022
Winds:from the WNW (300 degrees) at 12 MPH (10 knots; 5.1 m/s)
Visibility:6 or more sm (10+ km)
Clouds:missing
Weather:NSW (no significant weather)
Text:BECMG 0716/0718 VRB04KT
Forecast period:1600 UTC 07 October 2022 to 0600 UTC 08 October 2022
Forecast type:BECOMING: Conditions expected to become as follows by 1800 UTC 07 October 2022
Winds:variable direction winds at 5 MPH (4 knots; 2.1 m/s)
Visibility:6 or more sm (10+ km)
Clouds:missing
Weather:NSW (no significant weather)